createdAt,value
2023-04-02T00:02:30.026Z,3.05
2023-04-02T00:05:50.723Z,2.63
2023-04-02T00:08:24.087Z,3.20
2023-04-02T00:10:54.786Z,3.17
2023-04-02T00:13:34.696Z,2.50
2023-04-02T00:16:05.124Z,2.42
2023-04-02T00:18:35.670Z,2.63
2023-04-02T00:21:13.454Z,2.65
2023-04-02T00:23:44.062Z,2.60
2023-04-02T00:26:32.197Z,2.55
2023-04-02T00:29:04.081Z,2.17
2023-04-02T00:31:34.089Z,2.30
2023-04-02T00:34:05.342Z,2.55
2023-04-02T00:36:35.925Z,1.90
2023-04-02T00:39:09.911Z,2.70
2023-04-02T00:41:39.542Z,2.30
2023-04-02T00:44:14.208Z,2.60
2023-04-02T00:46:49.967Z,2.03
2023-04-02T00:49:28.143Z,2.28
2023-04-02T00:52:00.679Z,2.25
2023-04-02T00:54:32.921Z,2.28
2023-04-02T00:57:02.748Z,2.33
2023-04-02T00:59:36.988Z,2.47
2023-04-02T01:02:26.768Z,2.75
2023-04-02T01:04:57.431Z,2.17
2023-04-02T01:07:44.976Z,2.28
2023-04-02T01:10:35.663Z,2.20
2023-04-02T01:13:15.187Z,2.28
2023-04-02T01:15:53.238Z,2.40
2023-04-02T01:18:34.279Z,2.45
2023-04-02T01:21:26.362Z,2.30
2023-04-02T01:24:04.195Z,2.50
2023-04-02T01:26:50.506Z,2.65
2023-04-02T01:29:23.581Z,2.60
2023-04-02T01:31:55.886Z,2.15
2023-04-02T01:34:28.811Z,2.00
2023-04-02T01:37:11.506Z,2.88
2023-04-02T01:39:54.643Z,2.78
2023-04-02T01:42:27.261Z,2.33
2023-04-02T01:45:07.607Z,2.08
2023-04-02T01:47:36.606Z,2.50
2023-04-02T01:50:13.196Z,2.60
2023-04-02T01:52:44.565Z,2.60
2023-04-02T01:55:15.183Z,2.20
2023-04-02T01:57:47.678Z,2.03
2023-04-02T02:00:20.666Z,2.17
2023-04-02T02:02:52.340Z,2.22
2023-04-02T02:05:24.418Z,2.28
2023-04-02T02:07:54.545Z,2.35
2023-04-02T02:10:28.045Z,2.63
2023-04-02T02:13:00.621Z,2.47
2023-04-02T02:15:33.921Z,2.25
2023-04-02T02:18:07.220Z,2.15
2023-04-02T02:20:36.635Z,2.20
2023-04-02T02:23:06.477Z,2.20
2023-04-02T02:25:38.192Z,2.40
2023-04-02T02:28:10.149Z,2.40
2023-04-02T02:30:45.104Z,2.50
2023-04-02T02:33:18.553Z,2.30
2023-04-02T02:35:55.003Z,2.30
2023-04-02T02:38:42.657Z,2.50
2023-04-02T02:41:19.248Z,2.58
2023-04-02T02:43:54.922Z,2.53
2023-04-02T02:46:27.017Z,2.17
2023-04-02T02:48:59.368Z,2.55
2023-04-02T02:51:32.773Z,2.70
2023-04-02T02:54:05.362Z,2.30
2023-04-02T02:56:40.204Z,2.80
2023-04-02T02:59:11.518Z,2.35
2023-04-02T03:01:42.483Z,2.85
2023-04-02T03:04:11.452Z,2.80
2023-04-02T03:06:41.421Z,2.42
2023-04-02T03:09:21.314Z,2.75
2023-04-02T03:11:56.093Z,2.90
2023-04-02T03:14:32.320Z,2.60
2023-04-02T03:17:10.126Z,3.00
2023-04-02T03:19:46.864Z,2.92
2023-04-02T03:22:21.502Z,2.85
2023-04-02T03:24:58.121Z,2.83
2023-04-02T03:27:31.966Z,2.47
2023-04-02T03:30:16.097Z,3.13
2023-04-02T03:32:49.860Z,2.97
2023-04-02T03:35:26.520Z,2.80
2023-04-02T03:38:02.257Z,2.97
2023-04-02T03:40:36.253Z,3.13
2023-04-02T03:43:13.694Z,2.78
2023-04-02T03:45:45.740Z,2.22
2023-04-02T03:48:20.847Z,2.30
2023-04-02T03:50:57.097Z,2.50
2023-04-02T03:53:29.806Z,1.92
2023-04-02T03:56:00.700Z,2.70
2023-04-02T03:58:36.186Z,2.60
2023-04-02T04:01:12.584Z,2.30
2023-04-02T04:03:46.849Z,2.10
2023-04-02T04:06:22.684Z,2.45
2023-04-02T04:08:55.331Z,2.50
2023-04-02T04:11:28.634Z,2.53
2023-04-02T04:14:02.666Z,2.35
2023-04-02T04:16:36.376Z,3.08
2023-04-02T04:19:13.363Z,2.55
2023-04-02T04:21:45.654Z,2.55
2023-04-02T04:24:22.109Z,3.08
2023-04-02T04:26:57.553Z,2.50
2023-04-02T04:29:41.172Z,2.97
2023-04-02T04:32:32.361Z,3.50
2023-04-02T04:35:09.066Z,2.80
2023-04-02T04:37:43.322Z,2.50
2023-04-02T04:40:19.113Z,3.40
2023-04-02T04:42:52.374Z,3.03
2023-04-02T04:45:37.233Z,2.75
2023-04-02T04:48:10.452Z,2.75
2023-04-02T04:50:47.864Z,3.20
2023-04-02T04:53:21.255Z,2.45
2023-04-02T04:55:53.996Z,3.15
2023-04-02T04:58:25.581Z,3.20
2023-04-02T05:01:05.202Z,3.00
2023-04-02T05:03:40.014Z,3.10
2023-04-02T05:06:17.780Z,2.63
2023-04-02T05:08:51.445Z,2.67
2023-04-02T05:11:29.958Z,2.60
2023-04-02T05:14:03.928Z,3.22
2023-04-02T05:16:38.544Z,2.40
2023-04-02T05:19:12.934Z,3.10
2023-04-02T05:21:49.010Z,3.30
2023-04-02T05:24:40.769Z,3.33
2023-04-02T05:27:22.618Z,3.72
2023-04-02T05:29:57.402Z,3.30
2023-04-02T05:32:31.646Z,3.33
2023-04-02T05:35:02.256Z,3.20
2023-04-02T05:37:33.184Z,3.35
2023-04-02T05:40:14.923Z,3.55
2023-04-02T05:42:49.178Z,3.47
2023-04-02T05:45:29.645Z,3.35
2023-04-02T05:48:02.333Z,3.58
2023-04-02T05:50:37.652Z,3.65
2023-04-02T05:53:12.909Z,3.70
2023-04-02T05:55:53.864Z,4.00
2023-04-02T05:58:36.263Z,4.57
2023-04-02T06:01:30.943Z,4.25
2023-04-02T06:04:07.787Z,4.15
2023-04-02T06:06:51.129Z,4.00
2023-04-02T06:09:30.604Z,4.40
2023-04-02T06:12:06.155Z,4.47
2023-04-02T06:14:34.985Z,4.10
2023-04-02T06:17:03.674Z,4.03
2023-04-02T06:19:37.489Z,4.40
2023-04-02T06:22:16.826Z,4.57
2023-04-02T06:24:49.197Z,4.70
2023-04-02T06:27:23.048Z,4.40
2023-04-02T06:29:53.540Z,4.20
2023-04-02T06:32:25.988Z,4.57
2023-04-02T06:34:55.146Z,4.15
2023-04-02T06:37:29.979Z,4.50
2023-04-02T06:40:01.077Z,4.20
2023-04-02T06:42:33.643Z,4.35
2023-04-02T06:45:02.488Z,4.07
2023-04-02T06:47:37.820Z,4.32
2023-04-02T06:50:14.190Z,4.65
2023-04-02T06:52:50.523Z,4.85
2023-04-02T06:55:42.252Z,4.57
2023-04-02T06:58:11.541Z,4.32
2023-04-02T07:00:43.477Z,4.38
2023-04-02T07:03:18.512Z,4.40
2023-04-02T07:05:47.808Z,4.18
2023-04-02T07:08:16.930Z,4.60
2023-04-02T07:10:47.117Z,4.68
2023-04-02T07:13:17.637Z,4.70
2023-04-02T07:15:48.583Z,4.72
2023-04-02T07:18:28.151Z,5.07
2023-04-02T07:20:57.294Z,4.70
2023-04-02T07:23:26.871Z,5.85
2023-04-02T07:25:57.624Z,5.53
2023-04-02T07:28:26.874Z,5.43
2023-04-02T07:30:56.694Z,5.10
2023-04-02T07:33:28.098Z,5.32
2023-04-02T07:35:58.440Z,5.32
2023-04-02T07:38:27.400Z,4.72
2023-04-02T07:40:57.536Z,5.13
2023-04-02T07:43:26.191Z,5.32
2023-04-02T07:45:54.944Z,5.30
2023-04-02T07:48:24.089Z,5.55
2023-04-02T07:50:52.421Z,6.10
2023-04-02T07:53:31.240Z,6.47
2023-04-02T07:56:03.376Z,5.63
2023-04-02T07:58:33.893Z,5.90
2023-04-02T08:01:04.043Z,5.30
2023-04-02T08:03:33.181Z,5.70
2023-04-02T08:06:01.665Z,5.53
2023-04-02T08:08:30.365Z,5.70
2023-04-02T08:10:58.977Z,5.40
2023-04-02T08:13:29.343Z,5.53
2023-04-02T08:16:00.114Z,5.38
2023-04-02T08:18:28.978Z,5.80
2023-04-02T08:20:57.515Z,5.55
2023-04-02T08:23:27.304Z,5.07
2023-04-02T08:25:57.003Z,5.15
2023-04-02T08:28:26.156Z,5.30
2023-04-02T08:30:56.387Z,5.13
2023-04-02T08:33:25.141Z,5.07
2023-04-02T08:35:53.728Z,5.05
2023-04-02T08:38:23.931Z,5.40
2023-04-02T08:40:55.946Z,4.60
2023-04-02T08:43:39.437Z,5.43
2023-04-02T08:46:16.657Z,4.70
2023-04-02T08:48:53.306Z,5.43
2023-04-02T08:51:25.651Z,5.38
2023-04-02T08:53:57.753Z,4.90
2023-04-02T08:56:35.454Z,4.57
2023-04-02T08:59:11.439Z,3.97
2023-04-02T09:01:52.187Z,3.75
2023-04-02T09:04:23.571Z,3.88
2023-04-02T09:06:55.932Z,4.10
2023-04-02T09:09:26.683Z,3.58
2023-04-02T09:11:59.387Z,4.32
2023-04-02T09:14:42.832Z,4.60
2023-04-02T09:17:19.460Z,5.35
2023-04-02T09:19:55.935Z,5.78
2023-04-02T09:22:27.303Z,5.78
2023-04-02T09:24:57.521Z,4.60
2023-04-02T09:27:28.740Z,4.95
2023-04-02T09:30:04.061Z,5.10
2023-04-02T09:32:51.353Z,3.35
2023-04-02T09:35:26.670Z,2.55
2023-04-02T09:38:21.168Z,2.90
2023-04-02T09:40:53.130Z,2.28
2023-04-02T09:43:25.057Z,2.53
2023-04-02T09:46:02.689Z,2.70
2023-04-02T09:48:35.582Z,2.80
2023-04-02T09:51:13.926Z,2.67
2023-04-02T09:53:45.234Z,1.90
2023-04-02T09:56:21.030Z,2.92
2023-04-02T09:59:07.499Z,2.00
2023-04-02T10:01:40.825Z,1.90
2023-04-02T10:04:37.551Z,1.90
2023-04-02T10:07:08.508Z,1.73
2023-04-02T10:09:40.148Z,1.60
2023-04-02T10:12:14.022Z,1.60
2023-04-02T10:14:47.140Z,1.60
2023-04-02T10:17:20.484Z,1.58
2023-04-02T10:19:55.089Z,2.40
2023-04-02T10:22:25.075Z,2.42
2023-04-02T10:24:54.682Z,2.10
2023-04-02T10:27:32.316Z,1.92
2023-04-02T10:30:17.137Z,2.33
2023-04-02T10:32:50.252Z,2.55
2023-04-02T10:35:37.410Z,2.45
2023-04-02T10:38:31.268Z,1.92
2023-04-02T10:41:02.472Z,2.05
2023-04-02T10:43:54.713Z,1.80
2023-04-02T10:46:34.322Z,1.80
2023-04-02T10:49:15.081Z,2.17
2023-04-02T10:52:00.822Z,1.35
2023-04-02T10:54:43.051Z,1.45
2023-04-02T10:57:23.577Z,1.90
2023-04-02T10:59:58.362Z,1.50
2023-04-02T11:02:35.346Z,1.40
2023-04-02T11:05:16.035Z,1.63
2023-04-02T11:07:56.176Z,1.60
2023-04-02T11:10:25.200Z,1.50
2023-04-02T11:13:00.713Z,1.42
2023-04-02T11:15:32.413Z,1.20
2023-04-02T11:18:01.633Z,1.60
2023-04-02T11:21:11.520Z,1.40
2023-04-02T11:24:01.362Z,1.42
2023-04-02T11:26:45.974Z,1.90
2023-04-02T11:29:24.732Z,2.75
2023-04-02T11:32:31.086Z,4.72
2023-04-02T11:35:20.204Z,4.50
2023-04-02T11:37:48.942Z,4.07
2023-04-02T11:40:55.355Z,3.90
2023-04-02T11:44:01.209Z,3.65
2023-04-02T11:46:45.868Z,4.05
2023-04-02T11:49:41.478Z,3.47
2023-04-02T11:52:28.847Z,3.40
2023-04-02T11:55:01.162Z,3.38
2023-04-02T11:57:48.596Z,4.32
2023-04-02T12:00:28.918Z,3.05
2023-04-02T12:03:21.441Z,3.45
2023-04-02T12:05:59.146Z,2.70
2023-04-02T12:08:54.697Z,3.20
2023-04-02T12:11:34.714Z,3.50
2023-04-02T12:14:03.961Z,3.08
2023-04-02T12:16:37.104Z,2.95
2023-04-02T12:19:10.222Z,3.25
2023-04-02T12:21:40.388Z,3.28
2023-04-02T12:24:21.586Z,3.00
2023-04-02T12:26:50.346Z,3.22
2023-04-02T12:29:26.428Z,3.30
2023-04-02T12:31:59.117Z,3.15
2023-04-02T12:34:30.799Z,4.10
2023-04-02T12:37:15.802Z,4.07
2023-04-02T12:40:01.594Z,3.47
2023-04-02T12:42:33.999Z,3.85
2023-04-02T12:45:04.086Z,3.83
2023-04-02T12:47:35.132Z,3.45
2023-04-02T12:50:04.491Z,3.42
2023-04-02T12:52:46.252Z,3.42
2023-04-02T12:55:21.218Z,3.65
2023-04-02T12:57:58.338Z,3.65
2023-04-02T13:00:36.577Z,3.33
2023-04-02T13:03:22.081Z,3.55
2023-04-02T13:05:56.531Z,3.15
2023-04-02T13:08:28.611Z,2.70
2023-04-02T13:11:05.998Z,3.25
2023-04-02T13:13:37.305Z,3.05
2023-04-02T13:16:26.428Z,3.35
2023-04-02T13:19:28.541Z,2.33
2023-04-02T13:22:00.475Z,2.65
2023-04-02T13:24:31.218Z,2.80
2023-04-02T13:27:02.945Z,2.85
2023-04-02T13:29:34.290Z,2.58
2023-04-02T13:32:14.354Z,3.00
2023-04-02T13:34:44.130Z,2.70
2023-04-02T13:37:14.737Z,2.40
2023-04-02T13:39:44.430Z,2.72
2023-04-02T13:42:14.359Z,3.10
2023-04-02T13:44:46.676Z,4.10
2023-04-02T13:47:18.462Z,3.00
2023-04-02T13:49:52.304Z,2.55
2023-04-02T13:52:21.124Z,2.28
2023-04-02T13:54:53.744Z,2.70
2023-04-02T13:57:22.681Z,2.75
2023-04-02T13:59:51.492Z,2.58
2023-04-02T14:02:23.925Z,3.42
2023-04-02T14:05:02.691Z,2.80
2023-04-02T14:07:43.179Z,3.05
2023-04-02T14:10:22.422Z,2.65
2023-04-02T14:13:08.596Z,2.55
2023-04-02T14:15:57.901Z,2.80
2023-04-02T14:18:41.441Z,3.20
2023-04-02T14:21:22.892Z,2.33
2023-04-02T14:24:06.091Z,2.70
2023-04-02T14:26:43.774Z,2.65
2023-04-02T14:29:19.453Z,2.88
2023-04-02T14:31:57.018Z,2.83
2023-04-02T14:34:34.707Z,6.25
2023-04-02T14:37:13.663Z,2.28
2023-04-02T14:39:52.497Z,2.65
2023-04-02T14:42:29.587Z,2.50
2023-04-02T14:45:03.651Z,2.70
2023-04-02T14:47:39.104Z,2.70
2023-04-02T14:50:14.613Z,3.05
2023-04-02T14:52:49.780Z,3.80
2023-04-02T14:55:28.297Z,2.80
2023-04-02T14:57:57.757Z,3.13
2023-04-02T15:00:37.904Z,4.47
2023-04-02T15:03:13.804Z,2.30
2023-04-02T15:05:45.690Z,3.00
2023-04-02T15:08:21.090Z,3.67
2023-04-02T15:11:03.412Z,2.38
2023-04-02T15:13:39.751Z,2.30
2023-04-02T15:16:19.590Z,2.35
2023-04-02T15:18:51.893Z,2.13
2023-04-02T15:21:43.427Z,2.10
2023-04-02T15:24:34.368Z,2.40
2023-04-02T15:27:23.944Z,1.85
2023-04-02T15:29:59.470Z,1.70
2023-04-02T15:32:37.343Z,2.08
2023-04-02T15:35:20.472Z,1.60
2023-04-02T15:38:00.135Z,1.80
2023-04-02T15:40:52.074Z,2.05
2023-04-02T15:43:26.760Z,1.67
2023-04-02T15:46:21.540Z,1.77
2023-04-02T15:49:14.917Z,1.77
2023-04-02T15:52:03.202Z,1.35
2023-04-02T15:54:57.665Z,1.90
2023-04-02T15:57:51.425Z,1.77
2023-04-02T16:00:28.427Z,2.10
2023-04-02T16:03:07.629Z,1.80
2023-04-02T16:05:44.114Z,1.60
2023-04-02T16:08:42.055Z,1.70
2023-04-02T16:11:14.128Z,1.92
2023-04-02T16:13:44.299Z,1.50
2023-04-02T16:16:19.341Z,1.40
2023-04-02T16:18:57.974Z,1.70
2023-04-02T16:21:33.897Z,2.00
2023-04-02T16:24:06.932Z,2.08
2023-04-02T16:26:57.234Z,1.88
2023-04-02T16:29:53.390Z,1.90
2023-04-02T16:32:38.354Z,1.52
2023-04-02T16:37:58.039Z,2.42
2023-04-02T16:40:38.783Z,2.00
2023-04-02T16:43:18.031Z,1.90
2023-04-02T16:46:01.400Z,2.13
2023-04-02T16:48:41.510Z,1.80
2023-04-02T16:51:20.129Z,1.95
2023-04-02T16:54:02.192Z,2.05
2023-04-02T16:56:44.280Z,1.80
2023-04-02T16:59:22.139Z,1.50
2023-04-02T17:02:01.009Z,1.75
2023-04-02T17:04:54.112Z,1.58
2023-04-02T17:07:35.434Z,1.80
2023-04-02T17:10:26.055Z,1.70
2023-04-02T17:13:14.341Z,2.10
2023-04-02T17:15:48.959Z,1.95
2023-04-02T17:18:21.993Z,2.40
2023-04-02T17:20:50.552Z,2.22
2023-04-02T17:23:22.038Z,2.30
2023-04-02T17:25:57.547Z,2.47
2023-04-02T17:28:30.093Z,2.45
2023-04-02T17:31:03.169Z,1.88
2023-04-02T17:33:34.712Z,1.95
2023-04-02T17:36:26.746Z,1.67
2023-04-02T17:39:07.181Z,2.10
2023-04-02T17:41:45.689Z,2.05
2023-04-02T17:44:51.287Z,2.40
2023-04-02T17:47:25.029Z,2.55
2023-04-02T17:50:20.746Z,2.38
2023-04-02T17:52:58.935Z,2.30
2023-04-02T17:55:41.899Z,2.53
2023-04-02T17:58:28.305Z,2.53
2023-04-02T18:01:06.940Z,2.42
2023-04-02T18:04:20.092Z,2.70
2023-04-02T18:07:00.670Z,2.15
2023-04-02T18:09:40.647Z,2.13
2023-04-02T18:12:25.311Z,3.30
2023-04-02T18:15:11.131Z,3.25
2023-04-02T18:17:49.528Z,2.40
2023-04-02T18:20:33.160Z,2.00
2023-04-02T18:23:13.690Z,1.63
2023-04-02T18:25:57.212Z,1.67
2023-04-02T18:28:40.103Z,1.95
2023-04-02T18:31:18.675Z,1.98
2023-04-02T18:34:38.802Z,1.58
2023-04-02T18:37:20.431Z,1.85
2023-04-02T18:40:07.298Z,1.98
2023-04-02T18:42:53.524Z,2.30
2023-04-02T18:45:30.122Z,2.47
2023-04-02T18:48:08.596Z,1.98
2023-04-02T18:50:39.557Z,2.25
2023-04-02T18:53:14.270Z,2.10
2023-04-02T18:55:50.184Z,2.22
2023-04-02T18:58:27.207Z,1.83
2023-04-02T19:00:57.298Z,1.88
2023-04-02T19:03:31.549Z,2.10
2023-04-02T19:06:03.629Z,2.40
2023-04-02T19:08:38.110Z,3.17
2023-04-02T19:11:12.799Z,2.40
2023-04-02T19:13:41.859Z,2.03
2023-04-02T19:16:31.039Z,2.60
2023-04-02T19:19:11.834Z,2.45
2023-04-02T19:21:56.687Z,2.60
2023-04-02T19:24:38.166Z,3.03
2023-04-02T19:27:17.210Z,3.08
2023-04-02T19:29:58.557Z,2.97
2023-04-02T19:32:35.982Z,2.42
2023-04-02T19:35:16.981Z,2.97
2023-04-02T19:37:57.084Z,1.98
2023-04-02T19:40:42.013Z,2.00
2023-04-02T19:43:13.598Z,2.40
2023-04-02T19:45:44.718Z,3.22
2023-04-02T19:48:17.576Z,3.20
2023-04-02T19:50:46.401Z,2.22
2023-04-02T19:53:16.044Z,1.92
2023-04-02T19:55:45.734Z,2.10
2023-04-02T19:58:23.729Z,1.80
2023-04-02T20:00:52.320Z,2.00
2023-04-02T20:03:21.374Z,2.10
2023-04-02T20:05:51.092Z,2.28
2023-04-02T20:08:19.662Z,1.85
2023-04-02T20:10:48.385Z,2.03
2023-04-02T20:13:18.335Z,2.05
2023-04-02T20:15:47.479Z,1.98
2023-04-02T20:18:16.148Z,2.28
2023-04-02T20:20:47.445Z,2.38
2023-04-02T20:23:16.534Z,2.10
2023-04-02T20:25:47.760Z,2.70
2023-04-02T20:28:17.864Z,3.17
2023-04-02T20:30:47.030Z,2.80
2023-04-02T20:33:15.958Z,2.38
2023-04-02T20:35:44.823Z,2.70
2023-04-02T20:38:13.642Z,2.75
2023-04-02T20:40:42.445Z,2.60
2023-04-02T20:43:11.919Z,2.55
2023-04-02T20:45:41.940Z,2.60
2023-04-02T20:48:10.568Z,2.53
2023-04-02T20:50:39.316Z,2.80
2023-04-02T20:53:07.970Z,2.88
2023-04-02T20:55:36.706Z,3.15
2023-04-02T20:58:05.268Z,3.30
2023-04-02T21:00:34.209Z,2.78
2023-04-02T21:03:04.853Z,3.03
2023-04-02T21:05:33.523Z,3.22
2023-04-02T21:08:02.673Z,2.78
2023-04-02T21:10:31.075Z,3.40
2023-04-02T21:12:59.982Z,3.45
2023-04-02T21:15:28.804Z,3.20
2023-04-02T21:17:57.573Z,3.00
2023-04-02T21:20:27.806Z,2.78
2023-04-02T21:22:56.450Z,2.53
2023-04-02T21:25:25.023Z,2.88
2023-04-02T21:27:54.365Z,2.90
2023-04-02T21:30:23.013Z,2.50
2023-04-02T21:32:51.818Z,2.50
2023-04-02T21:35:20.539Z,2.63
2023-04-02T21:37:50.784Z,2.45
2023-04-02T21:40:19.602Z,2.83
2023-04-02T21:42:48.465Z,2.70
2023-04-02T21:45:17.258Z,2.28
2023-04-02T21:47:45.832Z,2.35
2023-04-02T21:50:14.433Z,2.35
2023-04-02T21:52:43.209Z,2.22
2023-04-02T21:55:13.641Z,2.70
2023-04-02T21:57:42.443Z,2.10
2023-04-02T22:00:14.003Z,2.38
2023-04-02T22:02:42.667Z,2.47
2023-04-02T22:05:11.543Z,2.00
2023-04-02T22:07:40.220Z,2.25
2023-04-02T22:10:09.434Z,2.20
2023-04-02T22:12:39.594Z,2.22
2023-04-02T22:15:09.009Z,2.00
2023-04-02T22:17:37.896Z,2.00
2023-04-02T22:20:07.419Z,2.15
2023-04-02T22:22:36.387Z,2.10
2023-04-02T22:25:05.329Z,2.28
2023-04-02T22:27:34.003Z,1.77
2023-04-02T22:30:04.219Z,1.90
2023-04-02T22:32:32.827Z,1.83
2023-04-02T22:35:01.530Z,2.00
2023-04-02T22:37:34.454Z,1.52
2023-04-02T22:40:03.001Z,1.58
2023-04-02T22:42:31.637Z,1.95
2023-04-02T22:45:00.694Z,1.67
2023-04-02T22:47:30.823Z,1.95
2023-04-02T22:49:59.455Z,1.77
2023-04-02T22:52:28.035Z,1.50
2023-04-02T22:54:56.725Z,1.50
2023-04-02T22:57:25.498Z,1.60
2023-04-02T22:59:54.126Z,1.30
2023-04-02T23:02:22.779Z,1.40
2023-04-02T23:04:52.907Z,1.83
2023-04-02T23:07:21.432Z,1.75
2023-04-02T23:09:50.154Z,1.40
2023-04-02T23:12:18.749Z,1.40
2023-04-02T23:14:47.362Z,1.48
2023-04-02T23:17:15.669Z,1.60
2023-04-02T23:19:44.300Z,1.63
2023-04-02T23:22:14.454Z,1.42
2023-04-02T23:24:43.065Z,1.70
2023-04-02T23:27:12.097Z,1.50
2023-04-02T23:29:40.737Z,1.40
2023-04-02T23:32:09.298Z,1.52
2023-04-02T23:34:37.907Z,1.52
2023-04-02T23:37:06.709Z,1.25
2023-04-02T23:39:36.987Z,1.40
2023-04-02T23:42:06.005Z,1.90
2023-04-02T23:44:34.681Z,1.55
2023-04-02T23:47:03.429Z,1.33
2023-04-02T23:49:32.342Z,1.35
2023-04-02T23:52:01.049Z,1.55
2023-04-02T23:54:30.536Z,1.35
2023-04-02T23:57:00.850Z,1.50
2023-04-02T23:59:29.416Z,1.85
